sensor_id;sensor_type;location;lat;lon;timestamp;P1;durP1;ratioP1;P2;durP2;ratioP2
2522;SDS011;1272;53.332;9.860;2023-06-26T00:00:41;10.30;;;9.50;;
2522;SDS011;1272;53.332;9.860;2023-06-26T00:03:07;11.07;;;10.17;;
2522;SDS011;1272;53.332;9.860;2023-06-26T00:05:33;12.17;;;11.27;;
2522;SDS011;1272;53.332;9.860;2023-06-26T00:07:59;11.60;;;10.70;;
2522;SDS011;1272;53.332;9.860;2023-06-26T00:10:28;12.03;;;10.93;;
2522;SDS011;1272;53.332;9.860;2023-06-26T00:12:54;11.97;;;10.93;;
2522;SDS011;1272;53.332;9.860;2023-06-26T00:15:20;11.30;;;10.50;;
2522;SDS011;1272;53.332;9.860;2023-06-26T00:17:45;11.63;;;10.63;;
2522;SDS011;1272;53.332;9.860;2023-06-26T00:20:11;11.10;;;10.20;;
2522;SDS011;1272;53.332;9.860;2023-06-26T00:22:37;11.47;;;10.60;;
2522;SDS011;1272;53.332;9.860;2023-06-26T00:25:06;11.47;;;10.47;;
2522;SDS011;1272;53.332;9.860;2023-06-26T00:27:32;11.67;;;10.77;;
2522;SDS011;1272;53.332;9.860;2023-06-26T00:29:57;11.47;;;10.57;;
2522;SDS011;1272;53.332;9.860;2023-06-26T00:32:23;10.73;;;10.00;;
2522;SDS011;1272;53.332;9.860;2023-06-26T00:34:49;11.83;;;10.83;;
2522;SDS011;1272;53.332;9.860;2023-06-26T00:37:14;10.97;;;9.97;;
2522;SDS011;1272;53.332;9.860;2023-06-26T00:39:40;11.07;;;10.20;;
2522;SDS011;1272;53.332;9.860;2023-06-26T00:42:06;11.13;;;10.23;;
2522;SDS011;1272;53.332;9.860;2023-06-26T00:44:32;11.10;;;10.30;;
2522;SDS011;1272;53.332;9.860;2023-06-26T00:46:57;10.80;;;10.00;;
2522;SDS011;1272;53.332;9.860;2023-06-26T00:49:24;10.87;;;10.07;;
2522;SDS011;1272;53.332;9.860;2023-06-26T00:51:51;11.17;;;10.27;;
2522;SDS011;1272;53.332;9.860;2023-06-26T00:54:17;12.20;;;11.20;;
2522;SDS011;1272;53.332;9.860;2023-06-26T00:56:45;12.20;;;11.00;;
2522;SDS011;1272;53.332;9.860;2023-06-26T00:59:12;11.70;;;10.70;;
2522;SDS011;1272;53.332;9.860;2023-06-26T01:01:38;10.80;;;9.90;;
2522;SDS011;1272;53.332;9.860;2023-06-26T01:04:04;11.07;;;10.27;;
2522;SDS011;1272;53.332;9.860;2023-06-26T01:06:30;11.03;;;10.23;;
2522;SDS011;1272;53.332;9.860;2023-06-26T01:09:00;10.93;;;10.00;;
2522;SDS011;1272;53.332;9.860;2023-06-26T01:11:27;11.63;;;10.63;;
2522;SDS011;1272;53.332;9.860;2023-06-26T01:13:52;11.73;;;10.83;;
2522;SDS011;1272;53.332;9.860;2023-06-26T01:16:20;11.13;;;10.23;;
2522;SDS011;1272;53.332;9.860;2023-06-26T01:18:48;11.17;;;10.17;;
2522;SDS011;1272;53.332;9.860;2023-06-26T01:21:14;11.40;;;10.60;;
2522;SDS011;1272;53.332;9.860;2023-06-26T01:26:16;13.13;;;10.47;;
2522;SDS011;1272;53.332;9.860;2023-06-26T01:28:47;11.20;;;10.30;;
2522;SDS011;1272;53.332;9.860;2023-06-26T01:31:15;12.30;;;11.20;;
2522;SDS011;1272;53.332;9.860;2023-06-26T01:33:42;11.13;;;10.23;;
2522;SDS011;1272;53.332;9.860;2023-06-26T01:36:08;10.53;;;9.63;;
2522;SDS011;1272;53.332;9.860;2023-06-26T01:38:34;12.00;;;11.00;;
2522;SDS011;1272;53.332;9.860;2023-06-26T01:41:00;10.90;;;10.00;;
2522;SDS011;1272;53.332;9.860;2023-06-26T01:43:31;12.00;;;11.10;;
2522;SDS011;1272;53.332;9.860;2023-06-26T01:46:23;12.30;;;11.10;;
2522;SDS011;1272;53.332;9.860;2023-06-26T01:51:23;12.30;;;11.30;;
2522;SDS011;1272;53.332;9.860;2023-06-26T01:53:55;11.90;;;11.00;;
2522;SDS011;1272;53.332;9.860;2023-06-26T01:56:23;11.37;;;9.87;;
2522;SDS011;1272;53.332;9.860;2023-06-26T01:58:50;11.53;;;10.53;;
2522;SDS011;1272;53.332;9.860;2023-06-26T02:01:20;10.80;;;9.83;;
2522;SDS011;1272;53.332;9.860;2023-06-26T02:03:46;10.53;;;9.53;;
2522;SDS011;1272;53.332;9.860;2023-06-26T02:06:12;11.83;;;10.80;;
2522;SDS011;1272;53.332;9.860;2023-06-26T02:08:38;11.13;;;10.13;;
2522;SDS011;1272;53.332;9.860;2023-06-26T02:11:04;11.63;;;10.73;;
2522;SDS011;1272;53.332;9.860;2023-06-26T02:13:29;10.53;;;9.77;;
2522;SDS011;1272;53.332;9.860;2023-06-26T02:15:55;10.87;;;9.97;;
2522;SDS011;1272;53.332;9.860;2023-06-26T02:18:21;10.87;;;9.97;;
2522;SDS011;1272;53.332;9.860;2023-06-26T02:20:47;10.97;;;10.07;;
2522;SDS011;1272;53.332;9.860;2023-06-26T02:23:13;11.63;;;10.73;;
2522;SDS011;1272;53.332;9.860;2023-06-26T02:25:39;11.30;;;10.40;;
2522;SDS011;1272;53.332;9.860;2023-06-26T02:28:05;10.77;;;9.77;;
2522;SDS011;1272;53.332;9.860;2023-06-26T02:30:30;11.27;;;10.37;;
2522;SDS011;1272;53.332;9.860;2023-06-26T02:32:56;12.23;;;11.17;;
2522;SDS011;1272;53.332;9.860;2023-06-26T02:35:22;10.23;;;9.47;;
2522;SDS011;1272;53.332;9.860;2023-06-26T02:37:47;11.30;;;10.40;;
2522;SDS011;1272;53.332;9.860;2023-06-26T02:40:13;10.20;;;9.40;;
2522;SDS011;1272;53.332;9.860;2023-06-26T02:42:39;10.57;;;9.77;;
2522;SDS011;1272;53.332;9.860;2023-06-26T02:45:05;11.10;;;10.20;;
2522;SDS011;1272;53.332;9.860;2023-06-26T02:47:31;10.73;;;9.83;;
2522;SDS011;1272;53.332;9.860;2023-06-26T02:49:56;9.83;;;9.00;;
2522;SDS011;1272;53.332;9.860;2023-06-26T02:52:22;11.40;;;10.40;;
2522;SDS011;1272;53.332;9.860;2023-06-26T02:54:48;10.30;;;9.50;;
2522;SDS011;1272;53.332;9.860;2023-06-26T02:57:13;11.30;;;10.33;;
2522;SDS011;1272;53.332;9.860;2023-06-26T02:59:39;11.20;;;10.30;;
2522;SDS011;1272;53.332;9.860;2023-06-26T03:02:05;10.87;;;9.90;;
2522;SDS011;1272;53.332;9.860;2023-06-26T03:04:31;10.70;;;9.83;;
2522;SDS011;1272;53.332;9.860;2023-06-26T03:06:57;11.27;;;9.90;;
2522;SDS011;1272;53.332;9.860;2023-06-26T03:09:22;10.83;;;9.93;;
2522;SDS011;1272;53.332;9.860;2023-06-26T03:11:48;10.63;;;9.73;;
2522;SDS011;1272;53.332;9.860;2023-06-26T03:14:14;11.00;;;10.10;;
2522;SDS011;1272;53.332;9.860;2023-06-26T03:16:40;10.90;;;10.00;;
2522;SDS011;1272;53.332;9.860;2023-06-26T03:19:05;11.60;;;10.70;;
2522;SDS011;1272;53.332;9.860;2023-06-26T03:21:32;10.67;;;9.87;;
2522;SDS011;1272;53.332;9.860;2023-06-26T03:23:58;10.67;;;9.87;;
2522;SDS011;1272;53.332;9.860;2023-06-26T03:26:23;13.17;;;10.10;;
2522;SDS011;1272;53.332;9.860;2023-06-26T03:28:52;11.00;;;10.20;;
2522;SDS011;1272;53.332;9.860;2023-06-26T03:31:19;10.00;;;9.30;;
2522;SDS011;1272;53.332;9.860;2023-06-26T03:33:44;9.50;;;8.77;;
2522;SDS011;1272;53.332;9.860;2023-06-26T03:36:10;11.43;;;10.53;;
2522;SDS011;1272;53.332;9.860;2023-06-26T03:38:36;11.47;;;10.50;;
2522;SDS011;1272;53.332;9.860;2023-06-26T03:41:02;10.00;;;9.27;;
2522;SDS011;1272;53.332;9.860;2023-06-26T03:43:27;11.03;;;10.13;;
2522;SDS011;1272;53.332;9.860;2023-06-26T03:45:53;10.60;;;9.50;;
2522;SDS011;1272;53.332;9.860;2023-06-26T03:48:19;10.50;;;9.60;;
2522;SDS011;1272;53.332;9.860;2023-06-26T03:50:45;11.37;;;10.20;;
2522;SDS011;1272;53.332;9.860;2023-06-26T03:53:11;11.33;;;10.53;;
2522;SDS011;1272;53.332;9.860;2023-06-26T03:55:37;10.43;;;9.63;;
2522;SDS011;1272;53.332;9.860;2023-06-26T03:58:03;11.17;;;10.27;;
2522;SDS011;1272;53.332;9.860;2023-06-26T04:00:29;10.67;;;9.87;;
2522;SDS011;1272;53.332;9.860;2023-06-26T04:02:56;10.47;;;9.57;;
2522;SDS011;1272;53.332;9.860;2023-06-26T04:05:22;10.03;;;9.33;;
2522;SDS011;1272;53.332;9.860;2023-06-26T04:07:51;9.60;;;9.00;;
2522;SDS011;1272;53.332;9.860;2023-06-26T04:10:17;11.33;;;10.40;;
2522;SDS011;1272;53.332;9.860;2023-06-26T04:12:45;11.67;;;10.57;;
2522;SDS011;1272;53.332;9.860;2023-06-26T04:15:11;10.57;;;9.77;;
2522;SDS011;1272;53.332;9.860;2023-06-26T04:17:37;11.73;;;10.67;;
2522;SDS011;1272;53.332;9.860;2023-06-26T04:20:02;10.77;;;9.77;;
2522;SDS011;1272;53.332;9.860;2023-06-26T04:22:32;11.53;;;10.53;;
2522;SDS011;1272;53.332;9.860;2023-06-26T04:25:00;10.73;;;9.90;;
2522;SDS011;1272;53.332;9.860;2023-06-26T04:27:27;10.70;;;9.90;;
2522;SDS011;1272;53.332;9.860;2023-06-26T04:29:53;10.70;;;9.83;;
2522;SDS011;1272;53.332;9.860;2023-06-26T04:32:19;11.27;;;10.37;;
2522;SDS011;1272;53.332;9.860;2023-06-26T04:34:45;11.03;;;10.03;;
2522;SDS011;1272;53.332;9.860;2023-06-26T04:37:12;11.13;;;10.03;;
2522;SDS011;1272;53.332;9.860;2023-06-26T04:39:41;11.90;;;11.00;;
2522;SDS011;1272;53.332;9.860;2023-06-26T04:42:07;11.70;;;10.70;;
2522;SDS011;1272;53.332;9.860;2023-06-26T04:44:32;9.70;;;8.93;;
2522;SDS011;1272;53.332;9.860;2023-06-26T04:46:58;11.60;;;10.70;;
2522;SDS011;1272;53.332;9.860;2023-06-26T04:49:24;11.43;;;10.43;;
2522;SDS011;1272;53.332;9.860;2023-06-26T04:51:50;11.90;;;10.90;;
2522;SDS011;1272;53.332;9.860;2023-06-26T04:54:16;10.57;;;9.67;;
2522;SDS011;1272;53.332;9.860;2023-06-26T04:56:41;11.40;;;10.50;;
2522;SDS011;1272;53.332;9.860;2023-06-26T04:59:08;10.80;;;9.90;;
2522;SDS011;1272;53.332;9.860;2023-06-26T05:01:38;10.93;;;10.10;;
2522;SDS011;1272;53.332;9.860;2023-06-26T05:04:04;11.77;;;10.70;;
2522;SDS011;1272;53.332;9.860;2023-06-26T05:06:30;11.00;;;10.10;;
2522;SDS011;1272;53.332;9.860;2023-06-26T05:08:56;10.87;;;9.90;;
2522;SDS011;1272;53.332;9.860;2023-06-26T05:11:22;12.00;;;11.00;;
2522;SDS011;1272;53.332;9.860;2023-06-26T05:13:48;11.27;;;10.20;;
2522;SDS011;1272;53.332;9.860;2023-06-26T05:16:14;10.10;;;9.30;;
2522;SDS011;1272;53.332;9.860;2023-06-26T05:18:40;9.50;;;8.80;;
2522;SDS011;1272;53.332;9.860;2023-06-26T05:21:06;9.63;;;8.83;;
2522;SDS011;1272;53.332;9.860;2023-06-26T05:23:32;13.77;;;9.87;;
2522;SDS011;1272;53.332;9.860;2023-06-26T05:25:59;10.47;;;9.47;;
2522;SDS011;1272;53.332;9.860;2023-06-26T05:28:26;9.43;;;8.73;;
2522;SDS011;1272;53.332;9.860;2023-06-26T05:30:53;10.03;;;9.23;;
2522;SDS011;1272;53.332;9.860;2023-06-26T05:33:23;10.23;;;9.33;;
2522;SDS011;1272;53.332;9.860;2023-06-26T05:35:51;9.70;;;8.80;;
2522;SDS011;1272;53.332;9.860;2023-06-26T05:38:18;10.27;;;9.37;;
2522;SDS011;1272;53.332;9.860;2023-06-26T05:40:44;10.50;;;9.60;;
2522;SDS011;1272;53.332;9.860;2023-06-26T05:43:10;9.63;;;8.83;;
2522;SDS011;1272;53.332;9.860;2023-06-26T05:45:36;10.33;;;9.53;;
2522;SDS011;1272;53.332;9.860;2023-06-26T05:48:02;10.97;;;9.93;;
2522;SDS011;1272;53.332;9.860;2023-06-26T05:50:28;9.83;;;9.13;;
2522;SDS011;1272;53.332;9.860;2023-06-26T05:52:54;9.93;;;9.03;;
2522;SDS011;1272;53.332;9.860;2023-06-26T05:55:20;8.83;;;8.13;;
2522;SDS011;1272;53.332;9.860;2023-06-26T05:57:46;10.10;;;9.30;;
2522;SDS011;1272;53.332;9.860;2023-06-26T06:00:13;9.87;;;8.87;;
2522;SDS011;1272;53.332;9.860;2023-06-26T06:02:39;10.30;;;9.37;;
2522;SDS011;1272;53.332;9.860;2023-06-26T06:05:07;8.07;;;7.37;;
2522;SDS011;1272;53.332;9.860;2023-06-26T06:07:33;7.90;;;7.33;;
2522;SDS011;1272;53.332;9.860;2023-06-26T06:10:00;8.30;;;7.70;;
2522;SDS011;1272;53.332;9.860;2023-06-26T06:12:26;8.57;;;7.87;;
2522;SDS011;1272;53.332;9.860;2023-06-26T06:14:52;8.17;;;7.47;;
2522;SDS011;1272;53.332;9.860;2023-06-26T06:17:21;7.87;;;7.17;;
2522;SDS011;1272;53.332;9.860;2023-06-26T06:19:47;9.90;;;7.20;;
2522;SDS011;1272;53.332;9.860;2023-06-26T06:22:13;8.50;;;7.70;;
2522;SDS011;1272;53.332;9.860;2023-06-26T06:24:38;6.60;;;6.10;;
2522;SDS011;1272;53.332;9.860;2023-06-26T06:27:04;6.80;;;6.30;;
2522;SDS011;1272;53.332;9.860;2023-06-26T06:29:30;6.67;;;6.17;;
2522;SDS011;1272;53.332;9.860;2023-06-26T06:31:56;7.40;;;6.70;;
2522;SDS011;1272;53.332;9.860;2023-06-26T06:34:22;6.13;;;5.67;;
2522;SDS011;1272;53.332;9.860;2023-06-26T06:36:48;6.80;;;6.30;;
2522;SDS011;1272;53.332;9.860;2023-06-26T06:39:15;7.20;;;6.60;;
2522;SDS011;1272;53.332;9.860;2023-06-26T06:41:40;7.00;;;6.40;;
2522;SDS011;1272;53.332;9.860;2023-06-26T06:44:06;7.63;;;7.03;;
2522;SDS011;1272;53.332;9.860;2023-06-26T06:46:32;6.70;;;6.17;;
2522;SDS011;1272;53.332;9.860;2023-06-26T06:48:58;7.37;;;6.87;;
2522;SDS011;1272;53.332;9.860;2023-06-26T06:51:25;7.17;;;6.67;;
2522;SDS011;1272;53.332;9.860;2023-06-26T06:53:51;7.23;;;6.63;;
2522;SDS011;1272;53.332;9.860;2023-06-26T06:56:16;6.60;;;6.10;;
2522;SDS011;1272;53.332;9.860;2023-06-26T06:58:42;22.23;;;9.93;;
2522;SDS011;1272;53.332;9.860;2023-06-26T07:01:11;6.13;;;5.73;;
2522;SDS011;1272;53.332;9.860;2023-06-26T07:03:38;6.53;;;6.07;;
2522;SDS011;1272;53.332;9.860;2023-06-26T07:06:04;6.30;;;5.80;;
2522;SDS011;1272;53.332;9.860;2023-06-26T07:08:30;6.80;;;6.27;;
2522;SDS011;1272;53.332;9.860;2023-06-26T07:10:55;6.20;;;5.70;;
2522;SDS011;1272;53.332;9.860;2023-06-26T07:13:21;6.60;;;6.00;;
2522;SDS011;1272;53.332;9.860;2023-06-26T07:15:47;6.10;;;5.60;;
2522;SDS011;1272;53.332;9.860;2023-06-26T07:18:13;6.97;;;6.37;;
2522;SDS011;1272;53.332;9.860;2023-06-26T07:20:39;6.00;;;5.50;;
2522;SDS011;1272;53.332;9.860;2023-06-26T07:23:05;6.03;;;5.60;;
2522;SDS011;1272;53.332;9.860;2023-06-26T07:25:31;6.40;;;5.80;;
2522;SDS011;1272;53.332;9.860;2023-06-26T07:27:57;6.10;;;5.60;;
2522;SDS011;1272;53.332;9.860;2023-06-26T07:30:23;6.87;;;6.37;;
2522;SDS011;1272;53.332;9.860;2023-06-26T07:32:49;6.33;;;5.93;;
2522;SDS011;1272;53.332;9.860;2023-06-26T07:35:15;6.20;;;5.70;;
2522;SDS011;1272;53.332;9.860;2023-06-26T07:37:41;6.90;;;6.40;;
2522;SDS011;1272;53.332;9.860;2023-06-26T07:40:07;7.37;;;6.77;;
2522;SDS011;1272;53.332;9.860;2023-06-26T07:42:33;6.87;;;6.27;;
2522;SDS011;1272;53.332;9.860;2023-06-26T07:44:59;6.47;;;5.87;;
2522;SDS011;1272;53.332;9.860;2023-06-26T07:47:25;6.17;;;5.70;;
2522;SDS011;1272;53.332;9.860;2023-06-26T07:49:50;6.77;;;6.27;;
2522;SDS011;1272;53.332;9.860;2023-06-26T07:52:17;7.40;;;5.33;;
2522;SDS011;1272;53.332;9.860;2023-06-26T07:54:44;6.63;;;6.07;;
2522;SDS011;1272;53.332;9.860;2023-06-26T07:57:09;7.00;;;6.50;;
2522;SDS011;1272;53.332;9.860;2023-06-26T07:59:36;7.53;;;6.40;;
2522;SDS011;1272;53.332;9.860;2023-06-26T08:02:02;7.27;;;6.00;;
2522;SDS011;1272;53.332;9.860;2023-06-26T08:04:28;6.20;;;5.70;;
2522;SDS011;1272;53.332;9.860;2023-06-26T08:06:58;6.10;;;5.70;;
2522;SDS011;1272;53.332;9.860;2023-06-26T08:09:28;7.53;;;6.93;;
2522;SDS011;1272;53.332;9.860;2023-06-26T08:11:55;7.07;;;6.47;;
2522;SDS011;1272;53.332;9.860;2023-06-26T08:14:21;6.30;;;5.80;;
2522;SDS011;1272;53.332;9.860;2023-06-26T08:16:47;7.17;;;6.47;;
2522;SDS011;1272;53.332;9.860;2023-06-26T08:19:13;6.50;;;5.90;;
2522;SDS011;1272;53.332;9.860;2023-06-26T08:21:42;7.50;;;6.47;;
2522;SDS011;1272;53.332;9.860;2023-06-26T08:24:09;6.60;;;6.00;;
2522;SDS011;1272;53.332;9.860;2023-06-26T08:26:35;6.43;;;5.93;;
2522;SDS011;1272;53.332;9.860;2023-06-26T08:29:02;6.97;;;6.13;;
2522;SDS011;1272;53.332;9.860;2023-06-26T08:31:33;6.77;;;6.27;;
2522;SDS011;1272;53.332;9.860;2023-06-26T08:34:02;6.10;;;5.60;;
2522;SDS011;1272;53.332;9.860;2023-06-26T08:36:28;6.73;;;5.83;;
2522;SDS011;1272;53.332;9.860;2023-06-26T08:38:54;6.80;;;6.30;;
2522;SDS011;1272;53.332;9.860;2023-06-26T08:41:20;6.93;;;6.30;;
2522;SDS011;1272;53.332;9.860;2023-06-26T08:43:46;7.90;;;7.20;;
2522;SDS011;1272;53.332;9.860;2023-06-26T08:46:15;7.00;;;6.37;;
2522;SDS011;1272;53.332;9.860;2023-06-26T08:48:41;7.50;;;6.90;;
2522;SDS011;1272;53.332;9.860;2023-06-26T08:51:13;9.83;;;7.57;;
2522;SDS011;1272;53.332;9.860;2023-06-26T08:53:45;6.73;;;6.23;;
2522;SDS011;1272;53.332;9.860;2023-06-26T08:56:18;7.83;;;7.23;;
2522;SDS011;1272;53.332;9.860;2023-06-26T08:58:47;8.57;;;7.97;;
2522;SDS011;1272;53.332;9.860;2023-06-26T09:01:13;7.40;;;6.80;;
2522;SDS011;1272;53.332;9.860;2023-06-26T09:03:39;9.73;;;8.83;;
2522;SDS011;1272;53.332;9.860;2023-06-26T09:06:06;8.83;;;8.03;;
2522;SDS011;1272;53.332;9.860;2023-06-26T09:08:32;9.30;;;8.53;;
2522;SDS011;1272;53.332;9.860;2023-06-26T09:10:58;10.00;;;9.10;;
2522;SDS011;1272;53.332;9.860;2023-06-26T09:13:25;8.43;;;7.60;;
2522;SDS011;1272;53.332;9.860;2023-06-26T09:15:52;8.13;;;7.50;;
2522;SDS011;1272;53.332;9.860;2023-06-26T09:18:19;7.40;;;6.80;;
2522;SDS011;1272;53.332;9.860;2023-06-26T09:20:46;9.00;;;8.23;;
2522;SDS011;1272;53.332;9.860;2023-06-26T09:23:12;9.57;;;8.50;;
2522;SDS011;1272;53.332;9.860;2023-06-26T09:25:39;8.83;;;8.03;;
2522;SDS011;1272;53.332;9.860;2023-06-26T09:28:05;6.70;;;6.10;;
2522;SDS011;1272;53.332;9.860;2023-06-26T09:30:32;8.97;;;7.87;;
2522;SDS011;1272;53.332;9.860;2023-06-26T09:33:09;8.20;;;7.50;;
2522;SDS011;1272;53.332;9.860;2023-06-26T09:35:43;9.90;;;9.00;;
2522;SDS011;1272;53.332;9.860;2023-06-26T09:38:09;9.33;;;8.50;;
2522;SDS011;1272;53.332;9.860;2023-06-26T09:40:34;9.47;;;8.57;;
2522;SDS011;1272;53.332;9.860;2023-06-26T09:43:06;10.10;;;9.10;;
2522;SDS011;1272;53.332;9.860;2023-06-26T09:45:35;11.00;;;8.53;;
2522;SDS011;1272;53.332;9.860;2023-06-26T09:48:05;8.27;;;7.53;;
2522;SDS011;1272;53.332;9.860;2023-06-26T09:50:36;8.23;;;7.53;;
2522;SDS011;1272;53.332;9.860;2023-06-26T09:53:09;7.70;;;7.10;;
2522;SDS011;1272;53.332;9.860;2023-06-26T09:55:36;8.60;;;7.87;;
2522;SDS011;1272;53.332;9.860;2023-06-26T09:58:02;9.37;;;7.60;;
2522;SDS011;1272;53.332;9.860;2023-06-26T10:00:29;9.07;;;8.37;;
2522;SDS011;1272;53.332;9.860;2023-06-26T10:02:55;7.30;;;6.60;;
2522;SDS011;1272;53.332;9.860;2023-06-26T10:05:21;9.47;;;6.47;;
2522;SDS011;1272;53.332;9.860;2023-06-26T10:07:47;7.03;;;5.93;;
2522;SDS011;1272;53.332;9.860;2023-06-26T10:10:14;8.70;;;5.70;;
2522;SDS011;1272;53.332;9.860;2023-06-26T10:12:42;7.10;;;5.93;;
2522;SDS011;1272;53.332;9.860;2023-06-26T10:15:11;7.50;;;6.37;;
2522;SDS011;1272;53.332;9.860;2023-06-26T10:17:41;5.80;;;5.20;;
2522;SDS011;1272;53.332;9.860;2023-06-26T10:20:08;7.10;;;5.00;;
2522;SDS011;1272;53.332;9.860;2023-06-26T10:22:40;5.60;;;5.03;;
2522;SDS011;1272;53.332;9.860;2023-06-26T10:25:09;6.47;;;5.87;;
2522;SDS011;1272;53.332;9.860;2023-06-26T10:27:38;7.30;;;6.17;;
2522;SDS011;1272;53.332;9.860;2023-06-26T10:30:06;5.50;;;5.10;;
2522;SDS011;1272;53.332;9.860;2023-06-26T10:32:38;6.77;;;6.07;;
2522;SDS011;1272;53.332;9.860;2023-06-26T10:35:05;10.63;;;5.53;;
2522;SDS011;1272;53.332;9.860;2023-06-26T10:37:44;7.53;;;6.73;;
2522;SDS011;1272;53.332;9.860;2023-06-26T10:40:20;7.70;;;6.70;;
2522;SDS011;1272;53.332;9.860;2023-06-26T10:43:06;6.00;;;5.50;;
2522;SDS011;1272;53.332;9.860;2023-06-26T10:45:33;7.07;;;6.50;;
2522;SDS011;1272;53.332;9.860;2023-06-26T10:48:00;8.10;;;7.20;;
2522;SDS011;1272;53.332;9.860;2023-06-26T10:50:32;8.20;;;7.50;;
2522;SDS011;1272;53.332;9.860;2023-06-26T10:53:08;9.47;;;8.50;;
2522;SDS011;1272;53.332;9.860;2023-06-26T10:56:03;10.00;;;9.17;;
2522;SDS011;1272;53.332;9.860;2023-06-26T10:58:33;10.73;;;9.67;;
2522;SDS011;1272;53.332;9.860;2023-06-26T11:06:23;12.13;;;10.30;;
2522;SDS011;1272;53.332;9.860;2023-06-26T11:11:54;7.70;;;7.00;;
2522;SDS011;1272;53.332;9.860;2023-06-26T11:14:18;8.33;;;7.40;;
2522;SDS011;1272;53.332;9.860;2023-06-26T11:16:45;6.83;;;6.23;;
2522;SDS011;1272;53.332;9.860;2023-06-26T11:19:12;8.13;;;7.33;;
2522;SDS011;1272;53.332;9.860;2023-06-26T11:21:39;11.47;;;5.73;;
2522;SDS011;1272;53.332;9.860;2023-06-26T11:24:09;6.53;;;5.80;;
2522;SDS011;1272;53.332;9.860;2023-06-26T11:26:39;7.53;;;5.13;;
2522;SDS011;1272;53.332;9.860;2023-06-26T11:29:09;5.33;;;4.93;;
2522;SDS011;1272;53.332;9.860;2023-06-26T11:31:37;5.50;;;5.00;;
2522;SDS011;1272;53.332;9.860;2023-06-26T11:34:10;5.63;;;4.90;;
2522;SDS011;1272;53.332;9.860;2023-06-26T11:36:38;4.80;;;4.40;;
2522;SDS011;1272;53.332;9.860;2023-06-26T11:39:06;6.10;;;3.80;;
2522;SDS011;1272;53.332;9.860;2023-06-26T11:41:33;7.67;;;4.50;;
2522;SDS011;1272;53.332;9.860;2023-06-26T11:44:01;3.93;;;2.73;;
2522;SDS011;1272;53.332;9.860;2023-06-26T11:46:31;4.40;;;3.87;;
2522;SDS011;1272;53.332;9.860;2023-06-26T11:48:58;3.73;;;3.33;;
2522;SDS011;1272;53.332;9.860;2023-06-26T11:51:29;3.70;;;2.63;;
2522;SDS011;1272;53.332;9.860;2023-06-26T11:53:54;3.60;;;2.87;;
2522;SDS011;1272;53.332;9.860;2023-06-26T11:56:21;2.87;;;2.33;;
2522;SDS011;1272;53.332;9.860;2023-06-26T12:01:36;4.80;;;2.30;;
2522;SDS011;1272;53.332;9.860;2023-06-26T12:04:07;3.47;;;2.90;;
2522;SDS011;1272;53.332;9.860;2023-06-26T12:06:35;5.00;;;2.30;;
2522;SDS011;1272;53.332;9.860;2023-06-26T12:09:03;7.00;;;2.10;;
2522;SDS011;1272;53.332;9.860;2023-06-26T12:11:31;2.17;;;1.80;;
2522;SDS011;1272;53.332;9.860;2023-06-26T12:13:59;2.60;;;2.13;;
2522;SDS011;1272;53.332;9.860;2023-06-26T12:16:27;3.00;;;2.13;;
2522;SDS011;1272;53.332;9.860;2023-06-26T12:19:00;4.10;;;1.60;;
2522;SDS011;1272;53.332;9.860;2023-06-26T12:24:09;1.80;;;1.70;;
2522;SDS011;1272;53.332;9.860;2023-06-26T12:26:38;6.10;;;2.30;;
2522;SDS011;1272;53.332;9.860;2023-06-26T12:29:07;2.20;;;2.00;;
2522;SDS011;1272;53.332;9.860;2023-06-26T12:31:39;3.43;;;1.90;;
2522;SDS011;1272;53.332;9.860;2023-06-26T12:34:12;3.80;;;2.33;;
2522;SDS011;1272;53.332;9.860;2023-06-26T12:36:42;2.50;;;1.90;;
2522;SDS011;1272;53.332;9.860;2023-06-26T12:39:15;2.53;;;2.13;;
2522;SDS011;1272;53.332;9.860;2023-06-26T12:44:27;6.00;;;1.60;;
2522;SDS011;1272;53.332;9.860;2023-06-26T12:46:54;2.03;;;1.93;;
2522;SDS011;1272;53.332;9.860;2023-06-26T12:49:29;1.97;;;1.87;;
2522;SDS011;1272;53.332;9.860;2023-06-26T12:52:03;2.70;;;1.80;;
2522;SDS011;1272;53.332;9.860;2023-06-26T12:54:39;5.67;;;2.40;;
2522;SDS011;1272;53.332;9.860;2023-06-26T12:57:06;3.87;;;1.90;;
2522;SDS011;1272;53.332;9.860;2023-06-26T12:59:32;3.13;;;2.27;;
2522;SDS011;1272;53.332;9.860;2023-06-26T13:01:59;2.03;;;1.90;;
2522;SDS011;1272;53.332;9.860;2023-06-26T13:04:25;3.40;;;1.83;;
2522;SDS011;1272;53.332;9.860;2023-06-26T13:06:52;2.67;;;2.03;;
2522;SDS011;1272;53.332;9.860;2023-06-26T13:09:20;3.70;;;2.23;;
2522;SDS011;1272;53.332;9.860;2023-06-26T13:11:46;2.27;;;1.70;;
2522;SDS011;1272;53.332;9.860;2023-06-26T13:14:12;2.97;;;1.77;;
2522;SDS011;1272;53.332;9.860;2023-06-26T13:16:38;2.67;;;2.07;;
2522;SDS011;1272;53.332;9.860;2023-06-26T13:19:04;2.60;;;1.70;;
2522;SDS011;1272;53.332;9.860;2023-06-26T13:21:30;1.70;;;1.60;;
2522;SDS011;1272;53.332;9.860;2023-06-26T13:23:56;3.67;;;2.10;;
2522;SDS011;1272;53.332;9.860;2023-06-26T13:26:24;3.83;;;1.80;;
2522;SDS011;1272;53.332;9.860;2023-06-26T13:28:51;3.00;;;1.80;;
2522;SDS011;1272;53.332;9.860;2023-06-26T13:31:17;1.60;;;1.50;;
2522;SDS011;1272;53.332;9.860;2023-06-26T13:33:44;2.60;;;1.70;;
2522;SDS011;1272;53.332;9.860;2023-06-26T13:36:11;3.00;;;2.10;;
2522;SDS011;1272;53.332;9.860;2023-06-26T13:38:36;3.97;;;2.03;;
2522;SDS011;1272;53.332;9.860;2023-06-26T13:41:02;2.70;;;1.70;;
2522;SDS011;1272;53.332;9.860;2023-06-26T13:43:28;3.10;;;2.37;;
2522;SDS011;1272;53.332;9.860;2023-06-26T13:45:55;1.93;;;1.70;;
2522;SDS011;1272;53.332;9.860;2023-06-26T13:48:21;2.30;;;1.80;;
2522;SDS011;1272;53.332;9.860;2023-06-26T13:50:47;3.23;;;1.77;;
2522;SDS011;1272;53.332;9.860;2023-06-26T13:53:13;4.00;;;2.33;;
2522;SDS011;1272;53.332;9.860;2023-06-26T13:55:40;2.03;;;1.83;;
2522;SDS011;1272;53.332;9.860;2023-06-26T13:58:06;3.83;;;1.67;;
2522;SDS011;1272;53.332;9.860;2023-06-26T14:00:33;1.90;;;1.80;;
2522;SDS011;1272;53.332;9.860;2023-06-26T14:03:02;2.80;;;1.67;;
2522;SDS011;1272;53.332;9.860;2023-06-26T14:05:32;1.57;;;1.40;;
2522;SDS011;1272;53.332;9.860;2023-06-26T14:07:58;2.20;;;1.30;;
2522;SDS011;1272;53.332;9.860;2023-06-26T14:10:24;2.50;;;1.70;;
2522;SDS011;1272;53.332;9.860;2023-06-26T14:12:50;2.30;;;1.53;;
2522;SDS011;1272;53.332;9.860;2023-06-26T14:15:16;3.53;;;1.90;;
2522;SDS011;1272;53.332;9.860;2023-06-26T14:17:41;1.70;;;1.60;;
2522;SDS011;1272;53.332;9.860;2023-06-26T14:20:08;3.33;;;1.87;;
2522;SDS011;1272;53.332;9.860;2023-06-26T14:22:35;1.60;;;1.50;;
2522;SDS011;1272;53.332;9.860;2023-06-26T14:25:02;2.00;;;1.40;;
2522;SDS011;1272;53.332;9.860;2023-06-26T14:27:28;1.60;;;1.30;;
2522;SDS011;1272;53.332;9.860;2023-06-26T14:29:53;1.90;;;1.53;;
2522;SDS011;1272;53.332;9.860;2023-06-26T14:32:19;3.23;;;1.80;;
2522;SDS011;1272;53.332;9.860;2023-06-26T14:34:45;1.60;;;1.30;;
2522;SDS011;1272;53.332;9.860;2023-06-26T14:37:10;4.30;;;3.03;;
2522;SDS011;1272;53.332;9.860;2023-06-26T14:39:36;2.43;;;2.20;;
2522;SDS011;1272;53.332;9.860;2023-06-26T14:42:03;1.80;;;1.67;;
2522;SDS011;1272;53.332;9.860;2023-06-26T14:44:30;1.90;;;1.80;;
2522;SDS011;1272;53.332;9.860;2023-06-26T14:46:56;4.13;;;2.07;;
2522;SDS011;1272;53.332;9.860;2023-06-26T14:49:21;2.87;;;1.60;;
2522;SDS011;1272;53.332;9.860;2023-06-26T14:51:47;1.93;;;1.60;;
2522;SDS011;1272;53.332;9.860;2023-06-26T14:54:13;1.90;;;1.63;;
2522;SDS011;1272;53.332;9.860;2023-06-26T14:56:38;5.53;;;1.67;;
2522;SDS011;1272;53.332;9.860;2023-06-26T14:59:04;2.00;;;1.80;;
2522;SDS011;1272;53.332;9.860;2023-06-26T15:01:32;1.83;;;1.73;;
2522;SDS011;1272;53.332;9.860;2023-06-26T15:03:58;2.30;;;1.50;;
2522;SDS011;1272;53.332;9.860;2023-06-26T15:06:24;2.10;;;1.90;;
2522;SDS011;1272;53.332;9.860;2023-06-26T15:08:50;2.00;;;1.90;;
2522;SDS011;1272;53.332;9.860;2023-06-26T15:11:15;3.83;;;1.80;;
2522;SDS011;1272;53.332;9.860;2023-06-26T15:13:43;2.67;;;1.50;;
2522;SDS011;1272;53.332;9.860;2023-06-26T15:16:08;2.03;;;1.80;;
2522;SDS011;1272;53.332;9.860;2023-06-26T15:18:34;1.60;;;1.50;;
2522;SDS011;1272;53.332;9.860;2023-06-26T15:21:00;1.50;;;1.40;;
2522;SDS011;1272;53.332;9.860;2023-06-26T15:23:28;1.63;;;1.50;;
2522;SDS011;1272;53.332;9.860;2023-06-26T15:25:54;4.33;;;1.63;;
2522;SDS011;1272;53.332;9.860;2023-06-26T15:28:19;1.53;;;1.40;;